Time;durP1;ratioP1;P1;durP2;ratioP2;P2;SDS_P1;SDS_P2;PMS_P1;PMS_P2;Temp;Humidity;BMP_temperature;BMP_pressure;BME280_temperature;BME280_humidity;BME280_pressure;Samples;Min_cycle;Max_cycle;Signal;HPM_P1;HPM_P2
2023/07/30 00:01:25;;;;;;;15.70;4.45;;;16.40;83.20;;;;;;4967902;28;20073;-76
2023/07/30 00:03:51;;;;;;;18.15;4.13;;;16.30;83.20;;;;;;4967895;28;20023;-78
2023/07/30 00:06:16;;;;;;;14.57;4.07;;;16.30;83.10;;;;;;4972891;28;20037;-76
2023/07/30 00:08:42;;;;;;;17.13;4.45;;;16.30;83.20;;;;;;4968830;28;20085;-76
2023/07/30 00:11:07;;;;;;;21.77;4.53;;;16.30;83.30;;;;;;4963350;28;20039;-76
2023/07/30 00:13:33;;;;;;;20.27;4.65;;;16.30;83.30;;;;;;4951530;28;20475;-76
2023/07/30 00:15:59;;;;;;;18.10;4.72;;;16.20;83.50;;;;;;4948694;28;20138;-78
2023/07/30 00:18:25;;;;;;;18.05;4.20;;;16.20;83.50;;;;;;4947371;28;20043;-76
2023/07/30 00:20:50;;;;;;;18.45;4.30;;;16.20;83.50;;;;;;4945437;28;20392;-75
2023/07/30 00:23:16;;;;;;;17.40;5.03;;;16.20;83.40;;;;;;4945091;28;20042;-76
2023/07/30 00:25:42;;;;;;;20.33;4.63;;;16.20;83.40;;;;;;4950227;28;20066;-76
2023/07/30 00:28:07;;;;;;;22.67;5.38;;;16.10;83.60;;;;;;4937453;28;20527;-78
2023/07/30 00:30:33;;;;;;;16.02;4.50;;;16.20;83.70;;;;;;4941808;28;20380;-76
2023/07/30 00:32:58;;;;;;;19.92;5.65;;;16.10;83.80;;;;;;4949502;28;20099;-76
2023/07/30 00:35:24;;;;;;;13.65;4.80;;;16.20;83.70;;;;;;4942524;28;20041;-75
2023/07/30 00:37:50;;;;;;;18.70;6.25;;;16.10;83.60;;;;;;4947476;28;20115;-75
2023/07/30 00:40:17;;;;;;;17.63;4.97;;;16.20;83.50;;;;;;4948165;28;20031;-78
2023/07/30 00:42:42;;;;;;;18.55;5.05;;;16.20;83.50;;;;;;4946026;28;20476;-74
2023/07/30 00:45:09;;;;;;;16.92;4.72;;;16.20;83.60;;;;;;4944840;28;20027;-77
2023/07/30 00:47:36;;;;;;;15.27;4.68;;;16.10;83.60;;;;;;4965870;28;20026;-75
2023/07/30 00:50:02;;;;;;;17.27;4.68;;;16.10;83.90;;;;;;4972621;28;20062;-76
2023/07/30 00:52:28;;;;;;;20.40;4.72;;;16.10;84.10;;;;;;4965092;28;20066;-75
2023/07/30 00:54:56;;;;;;;19.63;4.90;;;16.10;84.10;;;;;;4969578;28;20138;-76
2023/07/30 00:57:23;;;;;;;18.90;5.18;;;16.10;84.10;;;;;;4965830;28;20085;-75
2023/07/30 00:59:49;;;;;;;21.98;5.80;;;16.10;84.20;;;;;;4965179;28;20652;-77
2023/07/30 01:02:18;;;;;;;17.58;4.60;;;16.10;84.20;;;;;;4964708;28;20047;-75
2023/07/30 01:04:44;;;;;;;19.55;4.88;;;16.10;84.20;;;;;;4973707;28;20023;-76
2023/07/30 01:07:10;;;;;;;22.23;4.47;;;16.10;84.40;;;;;;4963821;28;20421;-76
2023/07/30 01:09:36;;;;;;;19.92;5.03;;;16.10;84.50;;;;;;4966033;28;20097;-75
2023/07/30 01:12:03;;;;;;;17.10;4.80;;;16.10;84.50;;;;;;4965877;28;20247;-76
2023/07/30 01:14:29;;;;;;;21.45;5.38;;;16.00;84.60;;;;;;4963198;28;20029;-77
2023/07/30 01:16:55;;;;;;;21.85;5.32;;;16.00;84.80;;;;;;4965861;28;20039;-74
2023/07/30 01:19:21;;;;;;;19.02;5.15;;;16.00;84.90;;;;;;4965180;28;20037;-74
2023/07/30 01:21:47;;;;;;;25.40;4.72;;;16.00;84.80;;;;;;4964269;28;20039;-74
2023/07/30 01:24:12;;;;;;;20.80;4.40;;;16.10;84.80;;;;;;4968231;28;20034;-76
2023/07/30 01:26:49;;;;;;;16.55;3.95;;;16.10;84.90;;;;;;4960882;28;20036;-75
2023/07/30 01:29:22;;;;;;;19.17;4.22;;;16.00;85.00;;;;;;4960585;28;20122;-74
2023/07/30 01:31:54;;;;;;;18.48;3.80;;;15.90;84.90;;;;;;4960362;28;20027;-75
2023/07/30 01:34:21;;;;;;;16.50;4.10;;;15.90;85.10;;;;;;4965349;28;20419;-74
2023/07/30 01:36:49;;;;;;;18.25;4.25;;;15.90;85.30;;;;;;4966616;28;20145;-75
2023/07/30 01:39:15;;;;;;;19.77;4.70;;;15.90;85.50;;;;;;4965141;28;20042;-75
2023/07/30 01:41:41;;;;;;;20.02;4.75;;;15.90;85.50;;;;;;4960271;28;20111;-74
2023/07/30 01:44:07;;;;;;;19.08;4.47;;;15.90;85.50;;;;;;4963422;28;20062;-75
2023/07/30 01:46:32;;;;;;;19.42;4.65;;;15.90;85.60;;;;;;4962798;28;20050;-74
2023/07/30 01:48:58;;;;;;;22.67;4.68;;;16.00;85.50;;;;;;4966219;28;20038;-75
2023/07/30 01:51:23;;;;;;;17.85;4.40;;;16.00;85.40;;;;;;4958143;28;20037;-74
2023/07/30 01:53:49;;;;;;;22.10;5.30;;;16.00;85.40;;;;;;4965802;28;20111;-76
2023/07/30 01:56:15;;;;;;;22.30;4.50;;;15.90;85.50;;;;;;4961032;28;20046;-74
2023/07/30 01:58:41;;;;;;;14.63;4.03;;;16.00;85.70;;;;;;4963500;28;20035;-75
2023/07/30 02:01:06;;;;;;;21.75;4.75;;;15.90;85.60;;;;;;4967183;28;20049;-74
2023/07/30 02:03:32;;;;;;;20.70;5.15;;;15.90;85.60;;;;;;4965782;28;20030;-74
2023/07/30 02:05:58;;;;;;;17.55;4.32;;;15.80;85.90;;;;;;4961811;28;20391;-75
2023/07/30 02:08:23;;;;;;;17.92;4.95;;;15.80;86.10;;;;;;4964069;28;20483;-73
2023/07/30 02:10:56;;;;;;;23.02;5.28;;;15.90;86.10;;;;;;4966178;28;20121;-75
2023/07/30 02:13:22;;;;;;;19.50;4.80;;;15.90;86.00;;;;;;4964679;28;20034;-76
2023/07/30 02:15:48;;;;;;;19.33;4.35;;;15.90;86.00;;;;;;4966577;28;20556;-74
2023/07/30 02:18:14;;;;;;;16.95;4.30;;;15.90;85.90;;;;;;4968390;28;20023;-75
2023/07/30 02:20:40;;;;;;;16.17;3.70;;;15.90;85.90;;;;;;4965094;28;20034;-75
2023/07/30 02:23:05;;;;;;;18.02;4.65;;;15.90;85.90;;;;;;4964924;28;20526;-74
2023/07/30 02:25:31;;;;;;;19.90;4.65;;;15.80;86.00;;;;;;4967038;28;20055;-76
2023/07/30 02:27:58;;;;;;;20.00;4.75;;;15.80;86.10;;;;;;4970085;28;20591;-74
2023/07/30 02:30:24;;;;;;;14.98;3.47;;;15.80;86.00;;;;;;4964491;28;20047;-75
2023/07/30 02:32:50;;;;;;;21.35;4.70;;;15.80;86.10;;;;;;4966860;28;20833;-75
2023/07/30 02:35:15;;;;;;;20.08;5.03;;;15.70;86.20;;;;;;4967955;28;20604;-74
2023/07/30 02:37:41;;;;;;;16.27;4.72;;;15.70;86.40;;;;;;4965974;28;20034;-75
2023/07/30 02:40:07;;;;;;;21.08;4.97;;;15.70;86.40;;;;;;4970445;28;20042;-75
2023/07/30 02:42:33;;;;;;;18.90;4.45;;;15.80;86.40;;;;;;4977636;28;20521;-74
2023/07/30 02:44:58;;;;;;;24.02;4.32;;;15.80;86.40;;;;;;4965816;28;20023;-74
2023/07/30 02:47:24;;;;;;;17.10;4.63;;;15.80;86.50;;;;;;4963391;28;20038;-72
2023/07/30 02:49:50;;;;;;;20.52;4.40;;;15.80;86.60;;;;;;4967569;28;20121;-75
2023/07/30 02:52:16;;;;;;;20.10;5.10;;;15.80;86.40;;;;;;4963365;28;20042;-74
2023/07/30 02:54:41;;;;;;;20.70;4.55;;;15.80;86.40;;;;;;4958736;28;20536;-76
2023/07/30 02:57:07;;;;;;;21.00;4.40;;;15.80;86.60;;;;;;4965856;28;20472;-75
2023/07/30 02:59:35;;;;;;;20.92;4.20;;;15.80;86.70;;;;;;4962138;28;20031;-75
2023/07/30 03:02:02;;;;;;;20.58;4.47;;;15.70;86.50;;;;;;4962073;28;20388;-75
2023/07/30 03:04:27;;;;;;;21.80;4.57;;;15.70;86.70;;;;;;4966605;28;20097;-75
2023/07/30 03:06:53;;;;;;;25.05;4.88;;;15.70;86.60;;;;;;4968252;28;20038;-75
2023/07/30 03:09:19;;;;;;;19.02;5.03;;;15.70;86.70;;;;;;4966658;28;20039;-75
2023/07/30 03:11:44;;;;;;;18.95;4.50;;;15.70;86.80;;;;;;4962576;28;20122;-75
2023/07/30 03:14:10;;;;;;;23.92;5.18;;;15.70;86.90;;;;;;4967839;28;20154;-75
2023/07/30 03:16:36;;;;;;;19.95;4.28;;;15.60;87.00;;;;;;4968250;28;20570;-75
2023/07/30 03:19:01;;;;;;;15.35;4.25;;;15.60;87.00;;;;;;4986794;28;20039;-75
2023/07/30 03:21:27;;;;;;;20.25;4.78;;;15.60;87.20;;;;;;4967997;28;20035;-74
2023/07/30 03:23:53;;;;;;;24.40;5.45;;;15.60;87.30;;;;;;4972994;28;20089;-76
2023/07/30 03:26:19;;;;;;;21.85;4.57;;;15.60;87.50;;;;;;4967306;28;20597;-76
2023/07/30 03:28:45;;;;;;;24.10;5.38;;;15.60;87.60;;;;;;4963013;28;20035;-74
2023/07/30 03:31:11;;;;;;;19.55;4.63;;;15.60;87.50;;;;;;4966483;28;20034;-74
2023/07/30 03:33:39;;;;;;;24.20;4.43;;;15.60;87.60;;;;;;4966595;28;20030;-74
2023/07/30 03:36:05;;;;;;;21.65;4.78;;;15.60;87.50;;;;;;4967318;28;20031;-76
2023/07/30 03:38:30;;;;;;;21.85;4.22;;;15.60;87.50;;;;;;4968332;28;20046;-74
2023/07/30 03:40:56;;;;;;;22.75;4.50;;;15.60;87.50;;;;;;4961860;28;20039;-75
2023/07/30 03:43:21;;;;;;;23.90;5.03;;;15.60;87.60;;;;;;4948464;28;20035;-74
2023/07/30 03:45:48;;;;;;;24.17;4.38;;;15.60;87.60;;;;;;4950064;28;20031;-74
2023/07/30 03:48:14;;;;;;;21.50;4.53;;;15.70;87.40;;;;;;4950637;28;20031;-73
2023/07/30 03:50:39;;;;;;;20.67;4.15;;;15.70;87.40;;;;;;4948561;28;20421;-73
2023/07/30 03:53:05;;;;;;;28.80;4.45;;;15.60;87.50;;;;;;4950187;28;20526;-76
2023/07/30 03:55:31;;;;;;;21.23;3.88;;;15.60;87.40;;;;;;4951739;28;20561;-75
2023/07/30 03:57:58;;;;;;;22.60;5.10;;;15.60;87.60;;;;;;4968191;28;20031;-76
2023/07/30 04:00:24;;;;;;;28.60;5.18;;;15.70;87.60;;;;;;4964665;28;20043;-77
2023/07/30 04:02:49;;;;;;;26.42;4.85;;;15.70;87.60;;;;;;4971440;28;20420;-75
2023/07/30 04:05:15;;;;;;;20.38;5.10;;;15.70;87.70;;;;;;4961209;28;20106;-76
2023/07/30 04:07:41;;;;;;;20.95;4.55;;;15.70;87.60;;;;;;4968907;28;20085;-75
2023/07/30 04:10:07;;;;;;;23.23;5.60;;;15.70;87.60;;;;;;4963055;28;20035;-75
2023/07/30 04:12:32;;;;;;;23.70;6.13;;;15.80;87.40;;;;;;4981831;28;20533;-75
2023/07/30 04:14:58;;;;;;;28.75;5.53;;;15.70;87.40;;;;;;4964382;28;20102;-73
2023/07/30 04:17:23;;;;;;;29.95;5.85;;;15.80;87.40;;;;;;4966015;28;20367;-74
2023/07/30 04:19:49;;;;;;;21.70;4.68;;;15.70;87.30;;;;;;4973136;28;20046;-74
2023/07/30 04:22:15;;;;;;;19.10;4.72;;;15.70;87.20;;;;;;4967608;28;20031;-74
2023/07/30 04:24:41;;;;;;;25.85;4.93;;;15.70;87.40;;;;;;4968880;28;20101;-73
2023/07/30 04:27:07;;;;;;;17.17;4.18;;;15.80;87.40;;;;;;4966656;28;20043;-76
2023/07/30 04:29:32;;;;;;;17.08;4.82;;;15.80;87.40;;;;;;4968996;28;20038;-74
2023/07/30 04:31:58;;;;;;;25.52;5.10;;;15.80;87.30;;;;;;4967093;28;20112;-73
2023/07/30 04:34:24;;;;;;;19.13;4.45;;;15.80;87.40;;;;;;4969087;28;20058;-73
2023/07/30 04:36:49;;;;;;;21.02;4.70;;;15.80;87.20;;;;;;4967225;28;20089;-73
2023/07/30 04:39:15;;;;;;;23.15;5.90;;;15.90;87.10;;;;;;4967926;28;20070;-74
2023/07/30 04:41:41;;;;;;;23.75;5.18;;;15.80;87.10;;;;;;4970638;28;20053;-73
2023/07/30 04:44:06;;;;;;;18.27;4.97;;;15.80;87.20;;;;;;4949350;28;20058;-75
2023/07/30 04:46:33;;;;;;;23.08;4.80;;;15.90;87.20;;;;;;4957353;28;20438;-75
2023/07/30 04:49:01;;;;;;;25.00;5.13;;;15.90;87.20;;;;;;4969194;28;20039;-75
2023/07/30 04:51:27;;;;;;;26.35;5.55;;;15.90;87.20;;;;;;4967506;28;20057;-75
2023/07/30 04:53:52;;;;;;;25.27;5.55;;;15.90;87.10;;;;;;4966319;28;20027;-76
2023/07/30 04:56:18;;;;;;;25.17;5.30;;;16.00;87.10;;;;;;4974044;28;20221;-74
2023/07/30 04:58:43;;;;;;;23.92;5.38;;;16.00;87.00;;;;;;4966642;28;20043;-75
2023/07/30 05:01:09;;;;;;;20.65;5.43;;;16.00;87.00;;;;;;4966967;28;20037;-75
2023/07/30 05:03:35;;;;;;;22.00;5.63;;;16.10;86.80;;;;;;4968986;28;20026;-74
2023/07/30 05:06:01;;;;;;;28.70;5.63;;;16.10;86.60;;;;;;4957794;28;20038;-74
2023/07/30 05:08:26;;;;;;;22.88;4.97;;;16.10;86.60;;;;;;4947646;28;20656;-75
2023/07/30 05:10:52;;;;;;;24.85;5.30;;;16.20;86.50;;;;;;4940371;28;20035;-76
2023/07/30 05:13:18;;;;;;;22.10;4.90;;;16.20;86.30;;;;;;4947041;28;20019;-76
2023/07/30 05:15:43;;;;;;;23.95;5.40;;;16.20;86.20;;;;;;4945080;28;20041;-73
2023/07/30 05:18:09;;;;;;;19.73;4.88;;;16.20;86.30;;;;;;4943778;28;20134;-78
2023/07/30 05:20:35;;;;;;;23.45;4.93;;;16.30;86.10;;;;;;4942851;28;20078;-75
2023/07/30 05:23:02;;;;;;;20.13;5.85;;;16.30;86.00;;;;;;4945627;28;20061;-73
2023/07/30 05:25:28;;;;;;;27.13;5.25;;;16.40;86.00;;;;;;4942876;28;20596;-75
2023/07/30 05:27:53;;;;;;;22.23;4.95;;;16.40;85.80;;;;;;4946045;28;20122;-75
2023/07/30 05:30:19;;;;;;;27.40;6.00;;;16.40;85.70;;;;;;4938531;28;20122;-75
2023/07/30 05:32:45;;;;;;;20.33;5.18;;;16.50;85.50;;;;;;4947019;29;20037;-75
2023/07/30 05:35:10;;;;;;;23.23;5.10;;;16.50;85.40;;;;;;4944411;28;20367;-74
2023/07/30 05:37:36;;;;;;;22.70;4.90;;;16.50;85.20;;;;;;4959371;28;20023;-76
2023/07/30 05:40:03;;;;;;;27.75;5.40;;;16.60;85.10;;;;;;4943934;28;20035;-75
2023/07/30 05:42:28;;;;;;;23.35;4.65;;;16.60;85.10;;;;;;4937707;29;20513;-75
2023/07/30 05:44:54;;;;;;;23.73;5.68;;;16.60;85.00;;;;;;4947327;29;20051;-74
2023/07/30 05:47:19;;;;;;;25.75;5.85;;;16.60;84.70;;;;;;4946451;28;20035;-74
2023/07/30 05:49:45;;;;;;;19.15;5.15;;;16.70;84.70;;;;;;4946120;28;20117;-74
2023/07/30 05:52:11;;;;;;;21.85;4.90;;;16.70;84.60;;;;;;4946677;28;20050;-74
2023/07/30 05:54:37;;;;;;;26.52;5.07;;;16.70;84.50;;;;;;4945873;29;20043;-74
2023/07/30 05:57:02;;;;;;;23.15;5.82;;;16.90;84.40;;;;;;4944661;28;20387;-75
2023/07/30 05:59:28;;;;;;;23.20;5.20;;;17.10;83.60;;;;;;4943615;28;20038;-74
2023/07/30 06:01:57;;;;;;;21.17;5.18;;;17.60;82.70;;;;;;4945852;28;21059;-75
2023/07/30 06:04:22;;;;;;;20.35;4.65;;;17.60;81.90;;;;;;4944850;29;20133;-75
2023/07/30 06:06:48;;;;;;;23.58;5.28;;;17.70;81.50;;;;;;4947230;28;20504;-76
2023/07/30 06:09:14;;;;;;;26.25;4.80;;;17.80;81.30;;;;;;4946177;28;20089;-75
2023/07/30 06:11:39;;;;;;;20.23;4.72;;;17.80;81.20;;;;;;4944971;28;20031;-74
2023/07/30 06:14:05;;;;;;;24.23;5.38;;;17.80;81.10;;;;;;4946141;29;20078;-73
2023/07/30 06:16:30;;;;;;;26.73;6.20;;;17.80;80.90;;;;;;4940029;28;20206;-73
2023/07/30 06:18:56;;;;;;;23.02;5.53;;;17.80;81.10;;;;;;4946485;29;20337;-73
2023/07/30 06:21:22;;;;;;;18.63;4.78;;;17.90;80.70;;;;;;4946086;28;20038;-75
2023/07/30 06:23:47;;;;;;;19.60;4.72;;;18.00;80.90;;;;;;4944950;29;20387;-74
2023/07/30 06:26:13;;;;;;;16.17;4.63;;;18.10;80.50;;;;;;4946104;28;20091;-75
2023/07/30 06:28:39;;;;;;;24.65;5.63;;;18.20;80.10;;;;;;4942367;28;20031;-74
2023/07/30 06:31:04;;;;;;;21.83;4.80;;;18.40;79.30;;;;;;4946124;28;20114;-75
2023/07/30 06:33:30;;;;;;;26.98;4.78;;;18.50;79.10;;;;;;4943591;28;20035;-74
2023/07/30 06:35:56;;;;;;;24.90;5.50;;;18.50;79.10;;;;;;4946656;28;20094;-75
2023/07/30 06:38:21;;;;;;;19.77;5.47;;;18.60;78.70;;;;;;4948976;28;20035;-75
2023/07/30 06:40:47;;;;;;;24.27;4.97;;;18.60;79.00;;;;;;4942957;28;20075;-75
2023/07/30 06:43:13;;;;;;;19.83;4.90;;;18.60;78.50;;;;;;4946011;28;20536;-74
2023/07/30 06:45:38;;;;;;;22.02;4.53;;;18.40;79.20;;;;;;4947422;28;20142;-74
2023/07/30 06:48:04;;;;;;;21.65;4.90;;;18.40;79.40;;;;;;4947064;28;20031;-74
2023/07/30 06:50:30;;;;;;;21.70;4.63;;;18.40;79.30;;;;;;4939259;28;20034;-73
2023/07/30 06:52:56;;;;;;;24.60;5.35;;;18.40;78.80;;;;;;4946946;28;20103;-75
2023/07/30 06:55:21;;;;;;;17.52;5.03;;;18.30;78.60;;;;;;4948519;28;20129;-75
2023/07/30 06:57:47;;;;;;;19.27;4.70;;;18.30;78.80;;;;;;4965451;28;20106;-74
2023/07/30 07:00:14;;;;;;;17.13;4.32;;;18.20;78.80;;;;;;4964632;28;20057;-74
2023/07/30 07:02:40;;;;;;;18.95;4.82;;;18.30;79.10;;;;;;4966448;28;20054;-75
2023/07/30 07:05:06;;;;;;;15.60;4.90;;;18.30;79.30;;;;;;4966256;28;20034;-74
2023/07/30 07:07:31;;;;;;;19.77;4.32;;;18.30;78.90;;;;;;4965063;28;20033;-74
2023/07/30 07:09:57;;;;;;;21.50;4.78;;;18.30;78.70;;;;;;4966797;28;20046;-74
2023/07/30 07:12:23;;;;;;;20.55;3.97;;;18.40;78.10;;;;;;4955625;28;20518;-74
2023/07/30 07:14:48;;;;;;;19.20;4.38;;;18.40;77.80;;;;;;4949903;28;20432;-74
2023/07/30 07:17:14;;;;;;;18.42;4.68;;;18.40;78.00;;;;;;4964122;28;20041;-75
2023/07/30 07:19:40;;;;;;;24.63;5.55;;;18.50;78.20;;;;;;4966708;28;20039;-75
2023/07/30 07:22:05;;;;;;;18.08;4.05;;;18.60;77.80;;;;;;4966620;28;20042;-74
2023/07/30 07:24:31;;;;;;;16.80;4.57;;;18.80;77.40;;;;;;4967119;28;20054;-74
2023/07/30 07:26:57;;;;;;;17.33;3.75;;;18.90;77.30;;;;;;4966118;28;20058;-78
2023/07/30 07:29:23;;;;;;;18.92;4.28;;;19.00;76.60;;;;;;4966387;28;20085;-75
2023/07/30 07:31:49;;;;;;;21.55;4.45;;;19.00;75.50;;;;;;4965093;28;20046;-75
2023/07/30 07:34:14;;;;;;;15.50;4.55;;;19.00;76.20;;;;;;4967909;28;20479;-75
2023/07/30 07:36:40;;;;;;;20.50;4.82;;;19.00;76.30;;;;;;4955944;28;20031;-78
2023/07/30 07:39:06;;;;;;;18.88;4.88;;;19.00;75.60;;;;;;4946934;28;20884;-75
2023/07/30 07:41:32;;;;;;;15.35;3.47;;;18.90;75.30;;;;;;4913751;28;1318777;-75
2023/07/30 07:43:57;;;;;;;13.43;3.15;;;19.00;74.40;;;;;;4969402;28;20043;-75
2023/07/30 07:46:23;;;;;;;11.43;2.97;;;18.90;74.40;;;;;;4966480;28;20043;-75
2023/07/30 07:48:49;;;;;;;11.95;2.97;;;18.70;75.20;;;;;;4967187;28;20022;-75
2023/07/30 07:51:14;;;;;;;11.77;3.00;;;18.70;74.80;;;;;;4966665;28;20037;-75
2023/07/30 07:53:40;;;;;;;13.93;3.38;;;18.50;75.40;;;;;;4966917;28;20448;-75
2023/07/30 07:56:06;;;;;;;12.57;3.72;;;18.40;76.60;;;;;;4970548;28;20571;-75
2023/07/30 07:58:32;;;;;;;16.83;4.03;;;18.60;77.80;;;;;;4968491;28;20073;-74
2023/07/30 08:00:59;;;;;;;15.52;4.00;;;18.50;79.40;;;;;;4969115;28;20054;-76
2023/07/30 08:03:26;;;;;;;15.32;3.80;;;18.30;79.50;;;;;;4968626;28;20498;-75
2023/07/30 08:05:52;;;;;;;11.48;3.83;;;18.10;80.70;;;;;;4964500;28;20501;-78
2023/07/30 08:08:18;;;;;;;12.85;3.83;;;18.10;81.50;;;;;;4968683;28;20035;-81
2023/07/30 08:10:46;;;;;;;13.93;3.80;;;18.30;81.10;;;;;;4967361;28;20123;-80
2023/07/30 08:13:12;;;;;;;13.20;3.58;;;18.50;81.40;;;;;;4956360;28;20027;-77
2023/07/30 08:15:37;;;;;;;16.83;3.75;;;18.50;80.40;;;;;;4965725;28;20070;-78
2023/07/30 08:18:03;;;;;;;15.25;4.47;;;18.60;80.70;;;;;;4970176;28;20020;-80
2023/07/30 08:20:29;;;;;;;15.43;3.83;;;18.80;79.90;;;;;;4974604;28;20031;-78
2023/07/30 08:22:54;;;;;;;13.60;3.13;;;19.00;79.50;;;;;;4977137;28;20027;-77
2023/07/30 08:25:20;;;;;;;14.35;3.90;;;19.10;78.70;;;;;;4968802;28;20154;-81
2023/07/30 08:27:46;;;;;;;15.43;3.88;;;19.30;77.90;;;;;;4968406;28;20027;-82
2023/07/30 08:30:12;;;;;;;12.30;2.95;;;19.60;76.30;;;;;;4965188;28;20464;-80
2023/07/30 08:32:38;;;;;;;15.25;3.97;;;20.10;74.50;;;;;;4968333;28;20527;-81
2023/07/30 08:35:04;;;;;;;12.93;2.95;;;20.30;73.40;;;;;;4962104;28;20065;-82
2023/07/30 08:37:30;;;;;;;13.35;3.13;;;20.40;72.80;;;;;;4965660;28;20050;-81
2023/07/30 08:39:56;;;;;;;11.38;3.00;;;20.20;71.60;;;;;;4966434;28;20700;-82
2023/07/30 08:42:22;;;;;;;14.20;3.25;;;20.40;71.20;;;;;;4951645;28;20146;-80
2023/07/30 08:44:48;;;;;;;14.57;2.80;;;20.70;69.50;;;;;;4947741;28;20037;-80
2023/07/30 08:47:14;;;;;;;13.27;2.50;;;20.70;68.60;;;;;;4963948;28;20047;-82
2023/07/30 08:49:40;;;;;;;12.38;2.60;;;20.60;69.30;;;;;;4965590;28;20049;-81
2023/07/30 08:52:10;;;;;;;12.88;3.00;;;20.70;67.60;;;;;;4966423;28;20121;-81
2023/07/30 08:54:37;;;;;;;10.63;2.90;;;20.60;68.00;;;;;;4964806;28;20062;-78
2023/07/30 08:57:03;;;;;;;9.52;2.47;;;20.80;68.70;;;;;;4966523;28;20499;-80
2023/07/30 08:59:46;;;;;;;12.25;2.60;;;20.90;67.70;;;;;;4961838;28;20621;-82
2023/07/30 09:02:29;;;;;;;13.48;2.90;;;20.80;67.40;;;;;;4963609;28;20059;-81
2023/07/30 09:04:59;;;;;;;11.63;2.83;;;20.70;68.10;;;;;;4961972;28;20527;-81
2023/07/30 09:07:25;;;;;;;11.50;3.20;;;20.90;67.50;;;;;;4965661;28;20070;-80
2023/07/30 09:09:51;;;;;;;11.60;2.67;;;20.90;68.10;;;;;;4966864;28;20073;-82
2023/07/30 09:12:17;;;;;;;14.07;3.08;;;21.10;66.20;;;;;;4982924;28;20091;-78
2023/07/30 09:14:46;;;;;;;11.15;2.70;;;21.00;66.30;;;;;;4966834;28;20034;-75
2023/07/30 09:17:18;;;;;;;16.60;3.78;;;21.40;66.30;;;;;;4960072;28;20034;-79
2023/07/30 09:19:44;;;;;;;14.77;3.05;;;21.80;65.90;;;;;;4959358;28;20109;-78
2023/07/30 09:22:10;;;;;;;11.38;2.45;;;21.80;64.00;;;;;;4946001;28;20043;-79
2023/07/30 09:24:36;;;;;;;14.65;2.72;;;21.70;64.60;;;;;;4941036;28;20160;-77
2023/07/30 09:27:02;;;;;;;12.60;3.03;;;21.70;65.30;;;;;;4960232;28;20034;-80
2023/07/30 09:29:28;;;;;;;11.57;2.90;;;22.10;64.30;;;;;;4958501;28;20030;-79
2023/07/30 09:31:55;;;;;;;14.20;2.88;;;22.00;65.40;;;;;;4962238;28;20089;-79
2023/07/30 09:34:22;;;;;;;11.70;2.78;;;21.20;66.30;;;;;;4961668;28;20042;-78
2023/07/30 09:36:52;;;;;;;14.82;3.13;;;21.10;68.10;;;;;;4960796;28;20051;-79
2023/07/30 09:39:26;;;;;;;16.42;3.20;;;20.70;68.90;;;;;;4964618;28;20617;-79
2023/07/30 09:41:59;;;;;;;13.80;2.80;;;20.90;67.50;;;;;;4960918;28;20047;-77
2023/07/30 09:44:24;;;;;;;11.25;2.72;;;21.20;66.60;;;;;;4966376;28;20094;-79
2023/07/30 09:46:50;;;;;;;9.30;2.33;;;21.40;63.80;;;;;;4966899;28;20081;-80
2023/07/30 09:49:18;;;;;;;10.43;2.80;;;21.90;62.50;;;;;;4967964;28;20031;-79
2023/07/30 09:51:44;;;;;;;9.55;2.20;;;22.10;62.50;;;;;;4963071;28;20480;-79
2023/07/30 09:54:12;;;;;;;11.98;2.47;;;21.70;62.50;;;;;;4960799;28;20055;-79
2023/07/30 09:56:39;;;;;;;10.25;2.33;;;21.40;64.00;;;;;;4964392;28;20034;-79
2023/07/30 09:59:06;;;;;;;12.45;2.35;;;20.90;63.70;;;;;;4963809;28;20133;-78
2023/07/30 10:01:35;;;;;;;10.25;2.55;;;21.10;64.10;;;;;;4964088;28;20092;-78
2023/07/30 10:04:07;;;;;;;10.85;2.42;;;21.00;63.00;;;;;;4967318;28;20581;-80
2023/07/30 10:06:36;;;;;;;8.38;2.33;;;21.40;63.60;;;;;;4950877;28;20118;-79
2023/07/30 10:09:02;;;;;;;7.93;2.42;;;21.80;62.40;;;;;;4944582;28;20034;-79
2023/07/30 10:11:28;;;;;;;6.38;1.77;;;22.10;59.30;;;;;;4944910;28;20078;-79
2023/07/30 10:13:55;;;;;;;9.68;2.40;;;21.80;59.10;;;;;;4939145;29;20035;-79
2023/07/30 10:16:27;;;;;;;10.93;2.17;;;21.90;59.00;;;;;;4942453;28;20126;-79
2023/07/30 10:18:57;;;;;;;10.10;2.20;;;22.10;59.10;;;;;;4937959;29;20062;-78
2023/07/30 10:21:25;;;;;;;10.65;2.40;;;22.30;58.50;;;;;;4944941;28;20422;-79
2023/07/30 10:23:59;;;;;;;11.75;2.55;;;22.10;58.70;;;;;;4944749;29;20035;-78
2023/07/30 10:26:33;;;;;;;8.38;2.60;;;22.10;59.10;;;;;;4932830;28;20027;-79
2023/07/30 10:29:19;;;;;;;10.15;2.33;;;22.00;59.50;;;;;;4940546;29;20427;-80
2023/07/30 10:31:56;;;;;;;13.77;2.42;;;21.90;58.80;;;;;;4940999;28;20046;-78
2023/07/30 10:34:26;;;;;;;11.90;2.22;;;21.80;59.10;;;;;;4936862;29;20038;-77
2023/07/30 10:36:54;;;;;;;10.68;2.20;;;22.50;59.60;;;;;;4941850;28;20042;-79
2023/07/30 10:39:27;;;;;;;9.60;2.15;;;22.70;57.20;;;;;;4943757;29;20046;-80
2023/07/30 10:42:00;;;;;;;10.27;2.38;;;23.00;56.30;;;;;;4944856;28;20158;-79
2023/07/30 10:44:30;;;;;;;9.52;2.17;;;23.10;55.60;;;;;;4938254;28;20019;-77
2023/07/30 10:46:57;;;;;;;9.02;2.40;;;23.00;55.90;;;;;;4945724;28;20130;-80
2023/07/30 10:49:23;;;;;;;10.43;2.50;;;23.40;55.50;;;;;;4941151;28;20035;-79
2023/07/30 10:51:51;;;;;;;10.68;2.60;;;23.30;54.40;;;;;;4948126;28;20043;-80
2023/07/30 10:54:16;;;;;;;11.25;2.60;;;23.50;53.70;;;;;;4939256;28;20439;-79
2023/07/30 10:56:42;;;;;;;10.93;2.70;;;23.60;54.30;;;;;;4946442;28;20082;-79
2023/07/30 10:59:12;;;;;;;9.65;2.30;;;23.80;54.00;;;;;;4945328;28;20043;-78
2023/07/30 11:01:39;;;;;;;11.10;2.10;;;24.10;53.20;;;;;;4951422;28;20035;-81
2023/07/30 11:04:13;;;;;;;9.20;2.22;;;24.20;53.40;;;;;;4959473;29;20111;-80
2023/07/30 11:06:39;;;;;;;9.60;2.15;;;24.30;52.40;;;;;;4952193;28;20544;-80
2023/07/30 11:09:05;;;;;;;9.13;2.45;;;24.40;51.30;;;;;;4940947;29;20102;-80
2023/07/30 11:11:31;;;;;;;8.55;2.05;;;24.10;51.70;;;;;;4942222;28;20118;-81
2023/07/30 11:13:58;;;;;;;4.72;1.70;;;23.90;51.20;;;;;;4943257;29;20031;-79
2023/07/30 11:16:24;;;;;;;10.55;2.20;;;24.00;52.20;;;;;;4942344;28;20097;-78
2023/07/30 11:18:50;;;;;;;8.70;2.40;;;24.50;50.50;;;;;;4945647;29;20468;-78
2023/07/30 11:21:17;;;;;;;7.72;1.83;;;24.60;50.00;;;;;;4941153;28;20134;-80
2023/07/30 11:23:44;;;;;;;9.20;1.98;;;24.20;48.80;;;;;;4947038;29;20038;-80
2023/07/30 11:26:18;;;;;;;7.30;1.88;;;24.20;48.70;;;;;;4942591;28;20093;-78
2023/07/30 11:28:44;;;;;;;8.95;1.83;;;24.30;49.80;;;;;;4947683;29;20720;-79
2023/07/30 11:31:13;;;;;;;10.82;2.70;;;24.20;50.10;;;;;;4945853;28;20043;-78
2023/07/30 11:33:41;;;;;;;10.95;2.83;;;23.70;49.60;;;;;;4946321;29;20038;-78
2023/07/30 11:36:10;;;;;;;9.60;2.25;;;23.50;49.10;;;;;;4946470;28;20109;-81
2023/07/30 11:38:38;;;;;;;8.52;2.15;;;23.80;49.60;;;;;;4945411;28;20024;-80
2023/07/30 11:41:05;;;;;;;7.00;1.70;;;24.00;49.50;;;;;;4946733;28;20047;-80
2023/07/30 11:43:31;;;;;;;14.40;2.85;;;24.10;50.20;;;;;;4943382;28;20024;-80
2023/07/30 11:46:07;;;;;;;8.25;1.98;;;23.60;51.10;;;;;;4947634;28;20063;-81
2023/07/30 11:48:33;;;;;;;6.32;2.05;;;24.10;49.00;;;;;;4946346;29;20073;-80
2023/07/30 11:50:58;;;;;;;8.32;1.60;;;23.90;48.10;;;;;;4946504;28;20055;-80
2023/07/30 11:53:44;;;;;;;6.75;1.60;;;23.80;48.20;;;;;;4939703;28;20043;-81
2023/07/30 11:56:22;;;;;;;10.45;1.70;;;24.20;49.40;;;;;;4946455;28;20119;-80
2023/07/30 11:58:48;;;;;;;8.27;2.28;;;24.40;48.50;;;;;;4942698;29;20030;-80
2023/07/30 12:01:15;;;;;;;9.57;2.08;;;24.40;48.30;;;;;;4941910;28;20046;-81
2023/07/30 12:03:41;;;;;;;10.20;2.30;;;24.30;48.90;;;;;;4943827;28;20109;-78
2023/07/30 12:06:09;;;;;;;6.45;1.95;;;24.10;47.30;;;;;;4947204;28;20043;-80
2023/07/30 12:08:35;;;;;;;10.20;2.13;;;24.50;46.90;;;;;;4943643;29;20090;-80
2023/07/30 12:11:06;;;;;;;9.85;2.22;;;24.10;48.50;;;;;;4941384;28;20146;-81
2023/07/30 12:13:32;;;;;;;11.50;2.67;;;23.90;50.60;;;;;;4946361;29;20066;-80
2023/07/30 12:15:58;;;;;;;8.45;2.10;;;24.10;50.80;;;;;;4941706;28;20123;-79
2023/07/30 12:18:25;;;;;;;10.57;2.38;;;24.70;49.80;;;;;;4945298;28;20031;-79
2023/07/30 12:20:51;;;;;;;9.80;2.33;;;24.90;49.20;;;;;;4952640;28;20132;-80
2023/07/30 12:23:18;;;;;;;8.73;2.30;;;24.80;48.80;;;;;;4967891;28;20479;-79
2023/07/30 12:25:44;;;;;;;7.85;2.10;;;24.30;48.10;;;;;;4965405;28;20105;-77
2023/07/30 12:28:10;;;;;;;8.10;2.38;;;24.30;48.70;;;;;;4971400;28;20507;-80
2023/07/30 12:30:36;;;;;;;9.57;2.92;;;24.50;48.00;;;;;;4981301;28;20038;-80
2023/07/30 12:33:03;;;;;;;13.18;2.67;;;24.50;47.30;;;;;;4967074;28;20027;-80
2023/07/30 12:35:30;;;;;;;10.80;3.42;;;24.10;48.40;;;;;;4966900;28;20061;-80